Time;durP1;ratioP1;P1;durP2;ratioP2;P2;SDS_P1;SDS_P2;PMS_P1;PMS_P2;Temp;Humidity;BMP_temperature;BMP_pressure;BME280_temperature;BME280_humidity;BME280_pressure;Samples;Min_cycle;Max_cycle;Signal;HPM_P1;HPM_P2
2023/11/13 00:02:13;;;;;;;4.78;4.38;;;15.60;66.70;;;;;;5133838;27;20218;-64
2023/11/13 00:04:39;;;;;;;4.65;4.25;;;15.60;66.70;;;;;;5133330;27;20187;-64
2023/11/13 00:07:05;;;;;;;4.32;3.92;;;15.60;66.80;;;;;;5133371;27;20169;-65
2023/11/13 00:09:30;;;;;;;5.22;4.72;;;15.60;67.00;;;;;;5134032;27;20175;-65
2023/11/13 00:11:56;;;;;;;5.15;4.65;;;15.60;66.70;;;;;;5133641;27;20180;-66
2023/11/13 00:14:21;;;;;;;4.85;4.45;;;15.60;66.70;;;;;;5133604;27;20164;-65
2023/11/13 00:16:47;;;;;;;4.80;4.13;;;15.60;66.80;;;;;;5133975;27;20218;-65
2023/11/13 00:19:13;;;;;;;4.65;4.25;;;15.60;66.80;;;;;;5133021;27;20340;-65
2023/11/13 00:21:38;;;;;;;4.70;4.13;;;15.50;66.70;;;;;;5133959;27;20537;-65
2023/11/13 00:24:05;;;;;;;4.80;4.40;;;15.60;66.80;;;;;;5133571;27;20718;-66
2023/11/13 00:26:31;;;;;;;4.60;4.30;;;15.50;66.70;;;;;;5133409;27;20259;-65
2023/11/13 00:28:56;;;;;;;4.32;3.95;;;15.50;66.70;;;;;;5134011;27;20291;-65
2023/11/13 00:31:22;;;;;;;4.15;3.78;;;15.50;66.70;;;;;;5133652;27;20264;-65
2023/11/13 00:33:48;;;;;;;5.00;4.15;;;15.50;66.70;;;;;;5133092;28;20259;-64
2023/11/13 00:36:14;;;;;;;4.18;3.88;;;15.50;66.60;;;;;;5133607;28;20226;-66
2023/11/13 00:38:40;;;;;;;4.30;3.90;;;15.50;66.70;;;;;;5133709;28;20168;-65
2023/11/13 00:41:10;;;;;;;3.97;3.58;;;15.50;66.70;;;;;;5133017;28;20207;-66
2023/11/13 00:43:35;;;;;;;4.97;4.47;;;15.40;66.60;;;;;;5133853;28;20564;-65
2023/11/13 00:46:02;;;;;;;4.43;4.10;;;15.50;66.60;;;;;;5132741;28;20695;-65
2023/11/13 00:48:27;;;;;;;4.43;4.05;;;15.50;66.60;;;;;;5133444;28;20702;-66
2023/11/13 00:50:53;;;;;;;4.43;4.00;;;15.40;66.50;;;;;;5133708;28;20211;-66
2023/11/13 00:53:18;;;;;;;3.90;3.47;;;15.40;66.60;;;;;;5132594;28;20540;-66
2023/11/13 00:55:44;;;;;;;4.57;4.18;;;15.40;66.60;;;;;;5133820;28;20497;-66
2023/11/13 00:58:09;;;;;;;4.07;3.55;;;15.50;66.60;;;;;;5133403;28;20545;-65
2023/11/13 01:00:35;;;;;;;4.00;3.70;;;15.40;66.50;;;;;;5132893;28;20383;-65
2023/11/13 01:03:01;;;;;;;3.97;3.67;;;15.40;66.50;;;;;;5135818;27;20646;-63
2023/11/13 01:05:27;;;;;;;4.25;3.83;;;15.40;66.60;;;;;;5137643;27;20620;-65
2023/11/13 01:07:53;;;;;;;4.53;4.13;;;15.40;66.50;;;;;;5137094;27;20204;-65
2023/11/13 01:10:18;;;;;;;4.03;3.72;;;15.40;66.50;;;;;;5137391;27;21017;-66
2023/11/13 01:12:44;;;;;;;4.28;3.90;;;15.40;66.50;;;;;;5137207;27;20653;-65
2023/11/13 01:15:11;;;;;;;3.70;3.40;;;15.40;66.50;;;;;;5135809;27;20184;-64
2023/11/13 01:17:36;;;;;;;4.10;3.72;;;15.40;66.40;;;;;;5137666;27;20180;-65
2023/11/13 01:20:06;;;;;;;4.68;4.00;;;15.30;66.40;;;;;;5137030;27;20594;-65
2023/11/13 01:22:31;;;;;;;4.53;3.85;;;15.30;66.50;;;;;;5136861;27;20168;-66
2023/11/13 01:24:57;;;;;;;4.22;3.72;;;15.30;66.50;;;;;;5137249;27;20180;-66
2023/11/13 01:27:23;;;;;;;3.80;3.50;;;15.30;66.60;;;;;;5137036;27;20204;-65
2023/11/13 01:29:48;;;;;;;4.30;3.90;;;15.30;66.50;;;;;;5136562;27;20176;-65
2023/11/13 01:32:14;;;;;;;4.15;3.85;;;15.30;66.40;;;;;;5136993;27;20173;-64
2023/11/13 01:34:39;;;;;;;3.58;3.28;;;15.30;66.40;;;;;;5138265;27;20172;-65
2023/11/13 01:37:05;;;;;;;4.07;3.78;;;15.30;66.50;;;;;;5137296;27;20200;-66
2023/11/13 01:39:30;;;;;;;3.72;3.42;;;15.30;66.40;;;;;;5137112;27;20200;-65
2023/11/13 01:41:56;;;;;;;4.30;3.90;;;15.30;66.50;;;;;;5137015;27;20172;-65
2023/11/13 01:44:21;;;;;;;4.25;3.85;;;15.30;66.40;;;;;;5135479;27;20173;-65
2023/11/13 01:46:47;;;;;;;4.07;3.75;;;15.30;66.50;;;;;;5136984;27;20175;-66
2023/11/13 01:49:12;;;;;;;4.00;3.70;;;15.30;66.50;;;;;;5117033;27;20234;-66
2023/11/13 01:51:38;;;;;;;4.30;3.90;;;15.20;66.40;;;;;;5136763;27;20176;-65
2023/11/13 01:54:04;;;;;;;3.90;3.60;;;15.20;66.40;;;;;;5118306;27;20172;-66
2023/11/13 01:56:29;;;;;;;4.20;3.72;;;15.30;66.60;;;;;;5136015;27;20631;-65
2023/11/13 01:58:56;;;;;;;3.90;3.60;;;15.30;66.50;;;;;;5118451;27;20172;-66
2023/11/13 02:01:22;;;;;;;4.20;3.80;;;15.20;66.40;;;;;;5136385;27;20172;-65
2023/11/13 02:03:48;;;;;;;3.80;3.50;;;15.30;66.50;;;;;;5100474;27;20199;-65
2023/11/13 02:06:17;;;;;;;4.43;4.03;;;15.30;66.30;;;;;;5136380;27;20181;-66
2023/11/13 02:08:43;;;;;;;4.13;3.83;;;15.20;66.40;;;;;;5101500;27;20236;-65
2023/11/13 02:11:08;;;;;;;3.97;3.67;;;15.20;66.50;;;;;;5135434;27;20252;-66
2023/11/13 02:13:34;;;;;;;3.78;3.47;;;15.20;66.50;;;;;;5117950;27;20211;-65
2023/11/13 02:16:00;;;;;;;4.93;3.72;;;15.20;66.50;;;;;;5135957;27;20221;-65
2023/11/13 02:18:26;;;;;;;3.65;3.35;;;15.20;66.50;;;;;;5135592;27;20177;-64
2023/11/13 02:20:51;;;;;;;3.85;3.55;;;15.20;66.50;;;;;;5136201;27;20535;-65
2023/11/13 02:23:17;;;;;;;4.03;3.70;;;15.20;66.50;;;;;;5135931;27;20237;-65
2023/11/13 02:25:51;;;;;;;3.90;3.60;;;15.20;66.50;;;;;;5135436;27;20692;-64
2023/11/13 02:28:16;;;;;;;4.38;3.97;;;15.10;66.50;;;;;;5135715;27;20208;-65
2023/11/13 02:30:42;;;;;;;3.63;3.33;;;15.20;66.50;;;;;;5136051;27;20191;-64
2023/11/13 02:33:07;;;;;;;10.77;3.47;;;15.10;66.50;;;;;;5134935;27;20179;-64
2023/11/13 02:35:33;;;;;;;3.92;3.63;;;15.10;66.40;;;;;;5136127;27;20169;-65
2023/11/13 02:37:58;;;;;;;3.70;3.40;;;15.10;66.50;;;;;;5135570;27;20251;-65
2023/11/13 02:40:24;;;;;;;3.58;3.38;;;15.10;66.50;;;;;;5135124;27;20179;-66
2023/11/13 02:42:50;;;;;;;3.60;3.30;;;15.10;66.50;;;;;;5135939;27;20260;-65
2023/11/13 02:45:16;;;;;;;4.72;3.67;;;15.10;66.50;;;;;;5135712;27;20179;-66
2023/11/13 02:47:41;;;;;;;3.70;3.40;;;15.10;66.50;;;;;;5134275;27;20287;-66
2023/11/13 02:50:09;;;;;;;3.60;3.30;;;15.10;66.50;;;;;;5135426;27;20180;-67
2023/11/13 02:52:35;;;;;;;3.78;3.47;;;15.10;66.50;;;;;;5134905;27;20225;-66
2023/11/13 02:55:01;;;;;;;3.92;3.25;;;15.10;66.60;;;;;;5135316;27;20259;-66
2023/11/13 02:57:26;;;;;;;3.83;3.53;;;15.10;66.50;;;;;;5135555;27;20640;-67
2023/11/13 02:59:52;;;;;;;3.80;3.50;;;15.10;66.60;;;;;;5135050;27;20164;-66
2023/11/13 03:02:18;;;;;;;3.55;3.25;;;15.00;66.50;;;;;;5134909;27;20654;-66
2023/11/13 03:04:43;;;;;;;3.78;3.45;;;15.10;66.60;;;;;;5135538;27;20187;-66
2023/11/13 03:07:09;;;;;;;3.58;3.20;;;15.10;66.60;;;;;;5134291;27;20180;-66
2023/11/13 03:09:34;;;;;;;3.53;3.22;;;15.10;66.60;;;;;;5135431;27;20226;-68
2023/11/13 03:12:00;;;;;;;3.60;3.30;;;15.00;66.50;;;;;;5134918;27;20160;-67
2023/11/13 03:14:26;;;;;;;3.50;3.20;;;15.00;66.50;;;;;;5134418;27;20182;-66
2023/11/13 03:16:51;;;;;;;4.65;3.88;;;15.00;66.50;;;;;;5135073;27;20172;-66
2023/11/13 03:19:17;;;;;;;3.42;3.13;;;15.00;66.50;;;;;;5134950;27;20264;-66
2023/11/13 03:21:42;;;;;;;4.38;3.17;;;15.10;66.80;;;;;;5134484;27;20255;-66
2023/11/13 03:24:09;;;;;;;3.47;3.17;;;15.00;66.70;;;;;;5134789;27;20260;-68
2023/11/13 03:26:35;;;;;;;3.20;2.78;;;15.00;66.70;;;;;;5134517;27;20176;-66
2023/11/13 03:29:00;;;;;;;3.47;3.17;;;15.00;66.70;;;;;;5133662;27;20307;-66
2023/11/13 03:31:26;;;;;;;3.60;3.30;;;15.00;66.70;;;;;;5134871;27;20255;-65
2023/11/13 03:33:53;;;;;;;3.97;3.58;;;15.00;66.70;;;;;;5134565;27;20571;-66
2023/11/13 03:36:19;;;;;;;3.55;3.25;;;15.00;66.80;;;;;;5133860;27;20544;-66
2023/11/13 03:38:45;;;;;;;3.50;3.20;;;15.00;66.80;;;;;;5134568;27;20626;-66
2023/11/13 03:41:11;;;;;;;3.40;3.20;;;15.00;66.70;;;;;;5134357;27;20192;-67
2023/11/13 03:43:36;;;;;;;3.38;3.08;;;15.00;66.70;;;;;;5133856;27;20200;-65
2023/11/13 03:46:04;;;;;;;3.58;3.28;;;15.00;66.80;;;;;;5134034;27;20575;-66
2023/11/13 03:48:30;;;;;;;3.75;3.30;;;15.00;66.80;;;;;;5134068;27;20327;-66
2023/11/13 03:50:56;;;;;;;3.58;3.15;;;15.00;67.70;;;;;;5132922;28;20173;-66
2023/11/13 03:53:21;;;;;;;3.63;3.17;;;14.90;66.90;;;;;;5133312;28;20175;-66
2023/11/13 03:55:47;;;;;;;3.60;3.30;;;15.00;66.80;;;;;;5133008;28;20690;-67
2023/11/13 03:58:12;;;;;;;3.20;3.00;;;15.00;67.00;;;;;;5133240;28;20187;-67
2023/11/13 04:00:38;;;;;;;3.45;3.15;;;14.90;66.90;;;;;;5133501;28;20537;-66
2023/11/13 04:03:03;;;;;;;3.40;3.10;;;14.90;66.80;;;;;;5132655;28;20168;-67
2023/11/13 04:05:29;;;;;;;3.30;3.10;;;14.90;66.90;;;;;;5133486;28;20627;-65
2023/11/13 04:07:55;;;;;;;3.33;2.95;;;14.90;66.90;;;;;;5133293;28;20216;-67
2023/11/13 04:10:21;;;;;;;3.20;2.90;;;14.90;66.90;;;;;;5132261;28;20204;-67
2023/11/13 04:12:47;;;;;;;3.58;3.28;;;15.00;67.10;;;;;;5133247;28;20638;-66
2023/11/13 04:15:13;;;;;;;3.45;3.22;;;14.80;66.90;;;;;;5133015;28;20183;-66
2023/11/13 04:17:38;;;;;;;3.20;2.90;;;14.90;67.10;;;;;;5132761;28;20172;-65
2023/11/13 04:20:07;;;;;;;3.33;3.00;;;14.90;67.10;;;;;;5132971;28;20180;-67
2023/11/13 04:22:33;;;;;;;3.28;2.97;;;14.90;67.20;;;;;;5133289;28;20168;-67
2023/11/13 04:24:59;;;;;;;3.22;2.70;;;14.90;67.20;;;;;;5132189;28;20200;-68
2023/11/13 04:27:25;;;;;;;3.70;3.40;;;14.90;67.20;;;;;;5133096;28;20196;-66
2023/11/13 04:29:51;;;;;;;3.15;2.95;;;14.90;67.20;;;;;;5133212;28;20234;-66
2023/11/13 04:32:16;;;;;;;3.22;3.03;;;14.90;67.20;;;;;;5115785;28;20184;-66
2023/11/13 04:34:42;;;;;;;3.13;2.92;;;14.90;67.30;;;;;;5112549;28;20183;-66
2023/11/13 04:37:08;;;;;;;3.58;3.28;;;14.90;67.30;;;;;;5111046;28;20173;-67
2023/11/13 04:39:33;;;;;;;3.35;3.05;;;14.90;67.40;;;;;;5111756;28;20365;-66
2023/11/13 04:41:59;;;;;;;2.85;2.65;;;14.90;67.40;;;;;;5112226;28;20203;-67
2023/11/13 04:44:24;;;;;;;3.75;2.88;;;14.90;67.40;;;;;;5112360;28;20271;-66
2023/11/13 04:46:50;;;;;;;3.80;2.95;;;14.90;67.40;;;;;;5111838;28;20566;-66
2023/11/13 04:49:16;;;;;;;3.42;3.13;;;14.90;67.40;;;;;;5075344;28;1046177;-67
2023/11/13 04:51:44;;;;;;;3.20;2.90;;;14.90;67.40;;;;;;5113345;28;20181;-66
2023/11/13 04:54:10;;;;;;;3.80;3.50;;;14.90;67.40;;;;;;5112267;28;20230;-68
2023/11/13 04:56:35;;;;;;;3.08;2.78;;;14.90;67.40;;;;;;5113016;28;20169;-67
2023/11/13 04:59:01;;;;;;;3.22;2.92;;;14.90;67.50;;;;;;5112122;28;20173;-66
2023/11/13 05:01:27;;;;;;;3.60;3.30;;;14.90;67.50;;;;;;5113249;28;20621;-67
2023/11/13 05:03:52;;;;;;;3.22;2.92;;;14.80;67.40;;;;;;5112971;28;20179;-66
2023/11/13 05:06:18;;;;;;;3.35;3.05;;;14.80;67.40;;;;;;5112057;28;20758;-67
2023/11/13 05:08:44;;;;;;;3.88;3.38;;;14.80;67.40;;;;;;5113098;28;20220;-67
2023/11/13 05:11:21;;;;;;;3.63;3.33;;;14.80;67.50;;;;;;5112430;28;20173;-67
2023/11/13 05:13:46;;;;;;;3.05;2.85;;;14.80;67.50;;;;;;5112177;28;20181;-67
2023/11/13 05:16:17;;;;;;;4.00;3.70;;;14.80;67.50;;;;;;5112840;28;20647;-67
2023/11/13 05:18:43;;;;;;;3.00;2.80;;;14.80;67.50;;;;;;5112898;28;20199;-66
2023/11/13 05:21:09;;;;;;;3.05;2.78;;;14.80;67.50;;;;;;5111567;28;20165;-68
2023/11/13 05:23:35;;;;;;;3.28;3.05;;;14.90;67.70;;;;;;5094047;28;20234;-66
2023/11/13 05:26:01;;;;;;;3.22;2.97;;;14.80;67.50;;;;;;5112363;28;20173;-67
2023/11/13 05:28:26;;;;;;;3.83;3.42;;;14.80;67.60;;;;;;5112140;28;20325;-65
2023/11/13 05:30:52;;;;;;;3.10;2.90;;;14.80;68.50;;;;;;5113011;28;20202;-66
2023/11/13 05:33:20;;;;;;;3.75;2.95;;;14.80;67.70;;;;;;5112632;28;20955;-65
2023/11/13 05:35:45;;;;;;;3.50;3.22;;;14.80;67.70;;;;;;5112134;28;20173;-66
2023/11/13 05:38:11;;;;;;;3.78;3.10;;;14.80;67.70;;;;;;5112427;28;20171;-66
2023/11/13 05:40:36;;;;;;;3.92;3.08;;;14.80;67.80;;;;;;5112754;28;20534;-66
2023/11/13 05:43:02;;;;;;;3.33;3.13;;;14.80;67.80;;;;;;5111850;28;20180;-66
2023/11/13 05:45:27;;;;;;;2.97;2.78;;;14.80;67.80;;;;;;5112841;28;20248;-66
2023/11/13 05:47:53;;;;;;;3.38;3.17;;;14.80;67.80;;;;;;5112678;28;20200;-66
2023/11/13 05:50:19;;;;;;;3.97;3.20;;;14.80;67.80;;;;;;5115272;28;20185;-66
2023/11/13 05:52:47;;;;;;;3.50;3.20;;;14.70;67.80;;;;;;5116262;28;20196;-66
2023/11/13 05:55:12;;;;;;;3.00;2.80;;;14.80;67.90;;;;;;5115778;28;20682;-67
2023/11/13 05:57:38;;;;;;;3.17;2.88;;;14.70;67.70;;;;;;5115824;28;20268;-67
2023/11/13 06:00:05;;;;;;;3.47;3.17;;;14.80;67.90;;;;;;5115857;28;20264;-66
2023/11/13 06:02:32;;;;;;;3.42;3.15;;;14.80;67.90;;;;;;5115509;28;20173;-66
2023/11/13 06:04:58;;;;;;;3.10;2.90;;;14.80;67.90;;;;;;5115858;28;20181;-66
2023/11/13 06:07:24;;;;;;;3.30;3.00;;;14.80;67.80;;;;;;5115895;28;20381;-67
2023/11/13 06:09:49;;;;;;;3.13;2.90;;;14.80;67.80;;;;;;5115109;28;20192;-67
2023/11/13 06:12:15;;;;;;;3.13;2.92;;;14.80;67.60;;;;;;5115710;28;20176;-66
2023/11/13 06:14:40;;;;;;;3.50;3.20;;;14.80;67.40;;;;;;5115757;28;20177;-67
2023/11/13 06:17:06;;;;;;;3.25;2.95;;;14.90;67.40;;;;;;5114596;28;20169;-66
2023/11/13 06:19:31;;;;;;;2.95;2.75;;;15.00;67.40;;;;;;5115888;28;20192;-66
2023/11/13 06:21:57;;;;;;;3.60;2.95;;;15.10;67.30;;;;;;5115789;28;20680;-67
2023/11/13 06:24:22;;;;;;;3.03;2.78;;;15.20;67.30;;;;;;5114713;28;20165;-67
2023/11/13 06:26:48;;;;;;;3.33;3.03;;;15.30;67.10;;;;;;5115805;28;20212;-66
2023/11/13 06:29:14;;;;;;;2.92;2.72;;;15.40;66.80;;;;;;5115342;28;20240;-66
2023/11/13 06:31:39;;;;;;;5.28;2.90;;;15.50;66.70;;;;;;5114808;28;20679;-66
2023/11/13 06:34:05;;;;;;;3.03;2.72;;;15.70;66.60;;;;;;5115314;28;20592;-66
2023/11/13 06:36:34;;;;;;;3.30;3.00;;;15.80;66.50;;;;;;5115423;28;20169;-66
2023/11/13 06:38:59;;;;;;;3.47;3.00;;;15.90;66.30;;;;;;5114247;28;20172;-67
2023/11/13 06:41:25;;;;;;;3.20;2.60;;;15.90;66.10;;;;;;5115512;28;20169;-67
2023/11/13 06:43:50;;;;;;;2.80;2.60;;;16.00;65.90;;;;;;5115305;28;20173;-66
2023/11/13 06:46:16;;;;;;;2.63;2.42;;;16.00;65.80;;;;;;5114315;28;20680;-66
2023/11/13 06:48:44;;;;;;;2.55;2.35;;;16.10;65.80;;;;;;5114990;28;20228;-66
2023/11/13 06:51:14;;;;;;;3.20;2.90;;;16.10;65.70;;;;;;5114749;28;20571;-66
2023/11/13 06:53:40;;;;;;;2.75;2.50;;;16.20;65.60;;;;;;5114205;28;20597;-67
2023/11/13 06:56:06;;;;;;;3.22;2.92;;;16.20;65.60;;;;;;5114818;28;20169;-68
2023/11/13 06:58:34;;;;;;;2.92;2.60;;;16.20;65.50;;;;;;5114854;28;20199;-67
2023/11/13 07:00:59;;;;;;;2.65;2.45;;;16.20;65.60;;;;;;5113452;28;20631;-66
2023/11/13 07:03:25;;;;;;;3.10;2.90;;;16.10;65.60;;;;;;5114789;28;20176;-66
2023/11/13 07:05:52;;;;;;;2.47;2.28;;;16.10;65.80;;;;;;5114131;28;20189;-67
2023/11/13 07:08:17;;;;;;;2.95;2.65;;;16.10;65.90;;;;;;5114296;28;20734;-66
2023/11/13 07:10:43;;;;;;;3.33;3.03;;;16.10;65.90;;;;;;5114720;28;20256;-67
2023/11/13 07:13:11;;;;;;;2.80;2.60;;;16.20;66.00;;;;;;5113438;28;20279;-65
2023/11/13 07:15:39;;;;;;;2.78;2.50;;;16.30;65.90;;;;;;5114619;28;20226;-66
2023/11/13 07:18:06;;;;;;;2.55;2.35;;;16.40;65.70;;;;;;5114284;28;20574;-66
2023/11/13 07:20:32;;;;;;;2.80;2.60;;;16.50;65.50;;;;;;5113749;28;20230;-65
2023/11/13 07:22:58;;;;;;;2.42;2.20;;;16.70;65.10;;;;;;5114433;28;20213;-66
2023/11/13 07:25:24;;;;;;;2.42;2.22;;;16.80;64.90;;;;;;5114612;28;20208;-65
2023/11/13 07:27:49;;;;;;;2.53;2.33;;;17.10;64.20;;;;;;5113673;28;20197;-66
2023/11/13 07:30:15;;;;;;;2.63;2.40;;;17.20;63.60;;;;;;5114081;28;20169;-65
2023/11/13 07:32:41;;;;;;;2.50;2.05;;;17.30;63.40;;;;;;5114415;28;20180;-64
2023/11/13 07:35:07;;;;;;;2.38;2.20;;;17.40;63.10;;;;;;5113152;28;20177;-66
2023/11/13 07:37:33;;;;;;;2.50;2.30;;;17.50;62.90;;;;;;5114398;28;20177;-65
2023/11/13 07:39:59;;;;;;;2.70;2.50;;;17.50;62.80;;;;;;5113761;28;20169;-65
2023/11/13 07:42:25;;;;;;;2.20;2.10;;;17.50;62.60;;;;;;5113556;28;20183;-65
2023/11/13 07:44:51;;;;;;;2.30;2.10;;;17.50;62.60;;;;;;5114161;28;20176;-66
2023/11/13 07:47:17;;;;;;;2.50;2.30;;;17.60;62.60;;;;;;5113767;28;20181;-66
2023/11/13 07:49:46;;;;;;;2.83;2.40;;;17.60;62.60;;;;;;5113155;28;20281;-67
2023/11/13 07:52:12;;;;;;;2.80;2.60;;;17.60;62.60;;;;;;5113789;28;20230;-66
2023/11/13 07:54:39;;;;;;;2.63;2.42;;;17.60;62.50;;;;;;5114045;28;20173;-67
2023/11/13 07:57:05;;;;;;;2.35;2.15;;;17.50;62.60;;;;;;5112964;28;20181;-66
2023/11/13 07:59:33;;;;;;;2.70;2.28;;;17.50;62.60;;;;;;5113783;28;20180;-67
2023/11/13 08:01:58;;;;;;;2.60;2.40;;;17.40;63.00;;;;;;5112738;28;20176;-66
2023/11/13 08:04:24;;;;;;;2.42;2.22;;;17.40;63.20;;;;;;5113558;28;20177;-65
2023/11/13 08:06:50;;;;;;;2.42;2.22;;;17.40;63.20;;;;;;5113909;28;20168;-67
2023/11/13 08:09:15;;;;;;;3.55;2.17;;;17.40;63.20;;;;;;5112800;28;20209;-67
2023/11/13 08:11:41;;;;;;;3.45;2.00;;;17.40;63.30;;;;;;5113391;28;20543;-67
2023/11/13 08:14:09;;;;;;;2.00;1.83;;;17.40;63.30;;;;;;5113244;28;20180;-67
2023/11/13 08:16:34;;;;;;;2.55;2.35;;;17.30;63.30;;;;;;5112575;28;20177;-65
2023/11/13 08:19:00;;;;;;;3.08;2.20;;;17.30;63.20;;;;;;5112911;28;20169;-66
2023/11/13 08:21:26;;;;;;;2.25;2.05;;;17.40;63.40;;;;;;5113443;28;20173;-66
2023/11/13 08:23:51;;;;;;;2.70;2.50;;;17.40;63.60;;;;;;5112828;28;20199;-66
2023/11/13 08:26:17;;;;;;;6.10;2.38;;;17.40;63.60;;;;;;5113313;28;20714;-67
2023/11/13 08:28:44;;;;;;;2.33;2.13;;;17.40;63.70;;;;;;5095011;28;20197;-65
2023/11/13 08:31:16;;;;;;;4.38;2.83;;;17.40;63.80;;;;;;5112166;28;20184;-69
2023/11/13 08:33:42;;;;;;;2.75;2.45;;;17.40;63.70;;;;;;5113222;28;20181;-69
2023/11/13 08:36:11;;;;;;;2.90;2.00;;;17.40;63.90;;;;;;5112937;28;20648;-72
2023/11/13 08:38:37;;;;;;;3.72;2.20;;;17.40;64.00;;;;;;5112426;28;20172;-70
2023/11/13 08:41:03;;;;;;;4.22;2.83;;;17.40;64.10;;;;;;5112896;28;20176;-71
2023/11/13 08:43:31;;;;;;;3.70;2.40;;;17.40;64.00;;;;;;5113130;28;20183;-69
2023/11/13 08:45:59;;;;;;;3.38;2.10;;;17.40;64.20;;;;;;5112459;28;20588;-69
2023/11/13 08:48:24;;;;;;;3.85;2.60;;;17.40;64.40;;;;;;5112737;28;20245;-69
2023/11/13 08:50:52;;;;;;;2.85;2.22;;;17.40;64.60;;;;;;5113423;28;20169;-70
2023/11/13 08:53:19;;;;;;;4.72;2.80;;;17.30;64.70;;;;;;5111966;28;20185;-69
2023/11/13 08:55:44;;;;;;;4.13;2.42;;;17.20;64.90;;;;;;5112790;28;20196;-69
2023/11/13 08:58:10;;;;;;;5.57;2.58;;;17.10;65.10;;;;;;5111823;28;20229;-69
2023/11/13 09:00:43;;;;;;;7.65;2.85;;;17.10;65.30;;;;;;5117663;28;20234;-68
2023/11/13 09:03:11;;;;;;;8.30;2.90;;;17.10;65.30;;;;;;5130667;28;20183;-68
2023/11/13 09:05:37;;;;;;;4.80;2.55;;;17.00;65.50;;;;;;5119281;28;20265;-67
2023/11/13 09:08:03;;;;;;;4.72;2.33;;;17.00;65.70;;;;;;5125468;28;20296;-69
2023/11/13 09:10:29;;;;;;;2.75;1.88;;;17.00;65.80;;;;;;5112999;28;20177;-69
2023/11/13 09:12:59;;;;;;;4.07;2.30;;;16.90;65.90;;;;;;5112153;28;20251;-68
2023/11/13 09:15:25;;;;;;;3.15;2.40;;;17.00;66.00;;;;;;5113100;28;20177;-68
2023/11/13 09:17:53;;;;;;;5.85;2.10;;;17.00;65.80;;;;;;5112781;28;20519;-68
2023/11/13 09:20:19;;;;;;;4.72;2.63;;;16.90;65.80;;;;;;5111661;28;20185;-68
2023/11/13 09:22:46;;;;;;;5.07;2.92;;;16.90;65.90;;;;;;5113289;28;20165;-68
2023/11/13 09:25:14;;;;;;;6.20;2.22;;;16.80;66.20;;;;;;5116448;28;20182;-68
2023/11/13 09:27:43;;;;;;;3.95;2.92;;;16.80;66.30;;;;;;5115941;28;20574;-68
2023/11/13 09:30:10;;;;;;;5.95;2.80;;;16.80;66.40;;;;;;5116317;28;20636;-69
2023/11/13 09:32:39;;;;;;;2.50;2.30;;;16.80;66.50;;;;;;5116762;28;20165;-67
2023/11/13 09:35:18;;;;;;;4.82;2.10;;;16.80;66.60;;;;;;5115470;28;20224;-68
2023/11/13 09:37:52;;;;;;;6.03;2.70;;;16.80;66.60;;;;;;5116614;28;20200;-66
2023/11/13 09:40:19;;;;;;;3.28;2.15;;;16.80;66.60;;;;;;5115783;28;20191;-72
2023/11/13 09:42:49;;;;;;;4.43;2.38;;;16.90;66.70;;;;;;5116641;28;20177;-69
2023/11/13 09:45:15;;;;;;;5.68;2.10;;;16.90;66.50;;;;;;5116263;28;20185;-69
2023/11/13 09:47:43;;;;;;;4.38;2.10;;;16.90;66.50;;;;;;5097127;28;20197;-68
2023/11/13 09:50:16;;;;;;;3.83;2.33;;;16.80;66.50;;;;;;5116023;28;20260;-70
2023/11/13 09:52:50;;;;;;;4.35;2.10;;;16.80;66.60;;;;;;5116222;28;20212;-70
2023/11/13 09:55:20;;;;;;;3.20;2.00;;;16.80;66.70;;;;;;5115413;28;20177;-70
2023/11/13 09:57:54;;;;;;;2.65;2.00;;;16.80;66.90;;;;;;5116295;28;20252;-69
2023/11/13 10:00:23;;;;;;;2.40;2.20;;;16.80;66.90;;;;;;5099204;28;20302;-69
2023/11/13 10:02:49;;;;;;;3.78;2.10;;;16.80;67.70;;;;;;5115345;28;20662;-69
2023/11/13 10:05:15;;;;;;;4.57;2.08;;;16.90;66.90;;;;;;5115645;28;20234;-68
2023/11/13 10:07:47;;;;;;;3.83;2.38;;;16.90;66.90;;;;;;5116049;28;20204;-70
2023/11/13 10:10:22;;;;;;;5.18;2.15;;;16.90;66.90;;;;;;5114863;28;20226;-68
2023/11/13 10:12:48;;;;;;;4.25;2.10;;;16.80;67.00;;;;;;5115851;28;20226;-68
2023/11/13 10:15:13;;;;;;;2.15;1.80;;;16.80;66.90;;;;;;5115435;28;20181;-69
2023/11/13 10:17:43;;;;;;;4.85;1.90;;;16.90;67.00;;;;;;5115031;28;20175;-70
2023/11/13 10:20:10;;;;;;;5.78;1.98;;;16.80;66.80;;;;;;5115304;28;20651;-70
2023/11/13 10:22:37;;;;;;;2.22;1.88;;;16.80;67.20;;;;;;5115072;28;20242;-67
2023/11/13 10:25:11;;;;;;;4.10;1.85;;;16.80;67.10;;;;;;5115376;28;20170;-68
2023/11/13 10:27:39;;;;;;;3.85;1.95;;;16.70;67.40;;;;;;5115414;28;20219;-68
2023/11/13 10:30:06;;;;;;;2.67;2.03;;;16.70;67.60;;;;;;5114574;28;20521;-68
2023/11/13 10:32:31;;;;;;;4.38;2.03;;;16.60;67.60;;;;;;5115619;28;20230;-68
2023/11/13 10:34:57;;;;;;;2.97;1.85;;;16.60;67.80;;;;;;5115300;28;20571;-69
2023/11/13 10:37:24;;;;;;;2.13;1.60;;;16.60;67.80;;;;;;5114438;28;20177;-70
2023/11/13 10:39:49;;;;;;;3.33;2.17;;;16.60;67.90;;;;;;5115316;28;20631;-70
2023/11/13 10:42:22;;;;;;;2.60;1.60;;;16.50;68.00;;;;;;5115038;28;20180;-70
2023/11/13 10:44:51;;;;;;;3.30;1.60;;;16.60;68.00;;;;;;5114394;28;20177;-70
2023/11/13 10:47:23;;;;;;;3.83;1.70;;;16.50;67.90;;;;;;5114872;28;20181;-69
2023/11/13 10:49:52;;;;;;;3.85;1.80;;;16.50;68.20;;;;;;5114996;28;20225;-69
2023/11/13 10:52:17;;;;;;;4.10;1.95;;;16.50;68.20;;;;;;5114188;28;20249;-70
2023/11/13 10:54:48;;;;;;;4.78;2.10;;;16.50;68.20;;;;;;5115157;28;20222;-71
2023/11/13 10:57:15;;;;;;;4.80;2.20;;;16.50;68.20;;;;;;5114728;28;20173;-69
2023/11/13 10:59:40;;;;;;;2.78;1.70;;;16.50;68.20;;;;;;5114590;28;20559;-73
2023/11/13 11:02:11;;;;;;;2.47;2.08;;;16.50;68.20;;;;;;5114848;28;20165;-71
2023/11/13 11:04:39;;;;;;;4.25;1.98;;;16.50;68.20;;;;;;5080361;28;20647;-70
2023/11/13 11:07:05;;;;;;;2.90;1.95;;;16.40;68.30;;;;;;5101610;27;20176;-71
2023/11/13 11:09:30;;;;;;;3.28;2.08;;;16.40;68.20;;;;;;5096208;28;20197;-70
2023/11/13 11:11:56;;;;;;;1.65;1.55;;;16.40;68.40;;;;;;5110264;28;20177;-71
2023/11/13 11:14:24;;;;;;;2.03;1.60;;;16.40;68.50;;;;;;5115792;27;20201;-71
2023/11/13 11:17:19;;;;;;;2.88;2.08;;;16.30;68.50;;;;;;5100314;27;20168;-69
2023/11/13 11:19:45;;;;;;;2.47;1.65;;;16.30;68.60;;;;;;5117689;27;20188;-70
2023/11/13 11:22:17;;;;;;;2.20;1.83;;;16.30;68.50;;;;;;5134644;27;20528;-71
2023/11/13 11:24:49;;;;;;;2.35;1.58;;;16.30;68.50;;;;;;5098580;28;20624;-70
2023/11/13 11:27:40;;;;;;;2.30;1.77;;;16.30;68.50;;;;;;5113540;28;20184;-71
2023/11/13 11:30:18;;;;;;;1.88;1.63;;;16.30;68.50;;;;;;5104682;28;20594;-72
2023/11/13 11:32:56;;;;;;;1.85;1.70;;;16.30;68.50;;;;;;5114118;28;20176;-69
2023/11/13 11:35:23;;;;;;;4.22;1.90;;;16.30;68.60;;;;;;5113898;28;20575;-71
2023/11/13 11:38:26;;;;;;;3.00;1.50;;;16.30;68.50;;;;;;5118101;27;20165;-69
2023/11/13 11:40:53;;;;;;;5.93;2.17;;;16.30;68.40;;;;;;5100372;28;20257;-72
2023/11/13 11:43:22;;;;;;;2.05;1.38;;;16.30;68.70;;;;;;5113662;28;20599;-72
2023/11/13 11:45:51;;;;;;;2.95;1.90;;;16.30;68.90;;;;;;5113493;28;20181;-72
2023/11/13 11:48:18;;;;;;;2.05;1.60;;;16.30;68.90;;;;;;5112705;28;20699;-71
2023/11/13 11:50:45;;;;;;;2.55;1.73;;;16.20;68.70;;;;;;5113811;28;20252;-69
2023/11/13 11:53:16;;;;;;;5.75;1.83;;;16.30;68.80;;;;;;5113651;28;20177;-68
2023/11/13 11:55:42;;;;;;;1.67;1.50;;;16.30;68.70;;;;;;5113214;28;20636;-73
2023/11/13 11:58:10;;;;;;;4.03;1.55;;;16.40;68.60;;;;;;5113673;28;20169;-68
2023/11/13 12:00:39;;;;;;;4.72;1.33;;;16.60;68.60;;;;;;5095838;28;20218;-68
2023/11/13 12:03:04;;;;;;;2.45;1.40;;;16.70;68.30;;;;;;5112712;28;20513;-68
2023/11/13 12:05:30;;;;;;;4.85;1.60;;;16.80;68.00;;;;;;5113746;28;20263;-64
2023/11/13 12:07:56;;;;;;;4.13;1.40;;;17.00;67.60;;;;;;5112738;28;20212;-65
2023/11/13 12:10:21;;;;;;;2.63;1.38;;;17.20;67.30;;;;;;5094601;28;20187;-67
2023/11/13 12:12:48;;;;;;;2.25;1.67;;;17.40;66.60;;;;;;5113218;28;20207;-67
2023/11/13 12:15:13;;;;;;;1.88;1.25;;;17.70;66.10;;;;;;5124413;27;20679;-67
2023/11/13 12:17:39;;;;;;;3.25;1.45;;;17.90;65.20;;;;;;5133963;27;20172;-67
2023/11/13 12:20:07;;;;;;;3.97;1.45;;;18.10;64.60;;;;;;5133709;27;20549;-68
2023/11/13 12:22:39;;;;;;;3.00;1.58;;;18.30;63.80;;;;;;5133209;27;20168;-68
2023/11/13 12:25:09;;;;;;;2.03;1.85;;;18.50;63.40;;;;;;5134111;27;20184;-67
2023/11/13 12:27:41;;;;;;;2.15;1.30;;;18.50;63.20;;;;;;5132883;27;20638;-67
2023/11/13 12:30:13;;;;;;;2.03;1.40;;;18.60;63.10;;;;;;5114955;28;20255;-67
2023/11/13 12:32:38;;;;;;;5.80;1.48;;;18.60;63.30;;;;;;5133833;27;20188;-67
2023/11/13 12:35:04;;;;;;;3.25;1.45;;;18.50;63.30;;;;;;5115227;28;20598;-68
2023/11/13 12:37:30;;;;;;;4.40;1.42;;;18.50;63.30;;;;;;5133041;28;20658;-68
2023/11/13 12:39:59;;;;;;;1.92;1.50;;;18.50;63.40;;;;;;5133973;28;20534;-67
2023/11/13 12:42:27;;;;;;;2.28;1.58;;;18.50;63.50;;;;;;5133958;28;20258;-66
2023/11/13 12:44:56;;;;;;;5.00;1.60;;;18.50;63.40;;;;;;5133203;28;20176;-66